jeudi 6 février 2014

ALERTE SPOTTING 06/02/14

32A G-EZWO easyJet
  dpt U24241  07h15
  U24244/U24245 11h55/12h45
 U24246/U24029  17h25/18h00
  arv U24030 21h10 (night stop)

CNJ D-CQQQ
    DCS709/DCS709 08h00/13h45

BEH F-GVLC Atlantique Air Assistance (blanc avec logo?)
   A5230/A5231 08h3/09h05

772 F-GSPB Air France
  dpt AF372S 09h00

CNJ D-CAAA
   DCS 701/DCS701 10h00/18h45

LOH CN-AOR Morocco Air Force
   arv 12h00

330MRTT EC-340 Royal Saudi Air Force
  dpt 14h10

CNJ D-IAMO
   dpt QGA571A 17h00

CNJ PH-FJK
   JNL555/JNL555 17h45 /18h15


 Manque les prévisions/immats Air Europa / Flybe / AZ / TAP / BA / certains Air Algérie
*** Heures en Local Time / prévisions soumises
 à modifications de dernières minutes ***

le TAF de la journée


METAR: LFPO 060400Z 21011KT 9999 FEW018 06/04 Q1005 NOSIG=
TAF LONG: LFPO 052300Z 0600/0706 21012G22KT 9999 SCT015 TEMPO 0603/0607
BKN011 TEMPO 0612/0615 RA BECMG 0621/0623 18015G30KT RA TEMPO
0700/0704 19025G47KT BECMG 0704/0706 22025G55KT=

Les logs des jours précédents :
 http://www.airkalo.com/ORLYAVIATION/Logdumois.html